Time,TemperatureF,DewpointF,PressureIn,WindDirection,WindDirectionDegrees,WindSpeedMPH,WindSpeedGustMPH,Humidity,HourlyPrecipIn,Conditions,Clouds,dailyrainin,SoftwareType,DateUTC
2013-03-17 00:07:00,33.3,25.0,29.87,WNW,287,0.0,1.0,71,0.00,,,0.00,weatherlink.com 1.10,2013-03-17 04:07:00,
2013-03-17 00:22:00,33.6,25.0,29.87,East,81,0.0,2.0,71,0.00,,,0.00,weatherlink.com 1.10,2013-03-17 04:22:00,
2013-03-17 00:37:00,35.0,28.0,29.87,East,98,1.0,7.0,75,0.00,,,0.00,weatherlink.com 1.10,2013-03-17 04:37:00,
2013-03-17 01:07:00,35.4,28.0,29.87,ESE,114,5.0,5.0,75,0.00,,,0.00,weatherlink.com 1.10,2013-03-17 05:07:00,
2013-03-17 01:22:00,35.4,29.0,29.87,East,98,5.0,5.0,77,0.00,,,0.00,weatherlink.com 1.10,2013-03-17 05:22:00,
2013-03-17 01:37:00,35.6,30.0,29.87,East,84,4.0,8.0,79,0.00,,,0.00,weatherlink.com 1.10,2013-03-17 05:37:00,
2013-03-17 01:52:00,35.6,30.0,29.88,ESE,122,5.0,7.0,79,0.00,,,0.00,weatherlink.com 1.10,2013-03-17 05:52:00,
2013-03-17 02:07:00,35.5,30.0,29.87,East,97,4.0,9.0,79,0.00,,,0.00,weatherlink.com 1.10,2013-03-17 06:07:00,
2013-03-17 02:22:00,35.5,30.0,29.88,East,92,3.0,9.0,79,0.00,,,0.00,weatherlink.com 1.10,2013-03-17 06:22:00,
2013-03-17 02:37:00,35.3,30.0,29.87,East,89,2.0,8.0,80,0.00,,,0.00,weatherlink.com 1.10,2013-03-17 06:37:00,
2013-03-17 02:52:00,35.1,29.0,29.87,SSE,159,3.0,6.0,78,0.00,,,0.00,weatherlink.com 1.10,2013-03-17 06:52:00,
2013-03-17 03:07:00,35.2,28.0,29.87,SSE,150,3.0,6.0,74,0.00,,,0.00,weatherlink.com 1.10,2013-03-17 07:07:00,
2013-03-17 03:22:00,35.2,28.0,29.87,SE,127,4.0,6.0,74,0.00,,,0.00,weatherlink.com 1.10,2013-03-17 07:22:00,
2013-03-17 03:37:00,35.1,27.0,29.87,South,188,2.0,5.0,72,0.00,,,0.00,weatherlink.com 1.10,2013-03-17 07:37:00,
2013-03-17 03:52:00,32.3,26.0,29.87,WNW,294,1.0,2.0,78,0.00,,,0.00,weatherlink.com 1.10,2013-03-17 07:52:00,
2013-03-17 04:07:00,31.4,26.0,29.87,WNW,294,1.0,1.0,79,0.00,,,0.00,weatherlink.com 1.10,2013-03-17 08:07:00,
2013-03-17 04:22:00,30.9,25.0,29.88,West,270,0.0,1.0,79,0.00,,,0.00,weatherlink.com 1.10,2013-03-17 08:22:00,
2013-03-17 04:52:00,29.3,24.0,29.88,West,270,0.0,1.0,80,0.00,,,0.00,weatherlink.com 1.10,2013-03-17 08:52:00,
2013-03-17 05:07:00,28.7,25.0,29.89,West,270,0.0,1.0,84,0.00,,,0.00,weatherlink.com 1.10,2013-03-17 09:07:00,
2013-03-17 05:22:00,28.8,24.0,29.90,West,270,0.0,1.0,83,0.00,,,0.00,weatherlink.com 1.10,2013-03-17 09:22:00,
2013-03-17 05:37:00,28.2,24.0,29.91,West,270,0.0,0.0,83,0.00,,,0.00,weatherlink.com 1.10,2013-03-17 09:37:00,
2013-03-17 05:52:00,27.4,24.0,29.91,WNW,287,1.0,2.0,85,0.00,,,0.00,weatherlink.com 1.10,2013-03-17 09:52:00,
2013-03-17 06:07:00,28.7,25.0,29.91,WNW,287,1.0,1.0,86,0.00,,,0.00,weatherlink.com 1.10,2013-03-17 10:07:00,
2013-03-17 06:22:00,28.8,25.0,29.92,WNW,286,0.0,1.0,86,0.00,,,0.00,weatherlink.com 1.10,2013-03-17 10:22:00,
2013-03-17 06:37:00,28.6,24.0,29.93,WNW,287,0.0,1.0,84,0.00,,,0.00,weatherlink.com 1.10,2013-03-17 10:37:00,
2013-03-17 06:52:00,26.9,23.0,29.93,WNW,287,0.0,1.0,85,0.00,,,0.00,weatherlink.com 1.10,2013-03-17 10:52:00,
2013-03-17 07:07:00,28.3,25.0,29.93,WNW,287,0.0,0.0,87,0.00,,,0.00,weatherlink.com 1.10,2013-03-17 11:07:00,
2013-03-17 07:22:00,30.7,26.0,29.93,WNW,287,0.0,0.0,84,0.00,,,0.00,weatherlink.com 1.10,2013-03-17 11:22:00,
2013-03-17 07:38:00,32.7,27.0,29.94,WNW,287,0.0,0.0,78,0.00,,,0.00,weatherlink.com 1.10,2013-03-17 11:38:00,
2013-03-17 07:53:00,33.1,27.0,29.95,South,171,0.0,1.0,78,0.00,,,0.00,weatherlink.com 1.10,2013-03-17 11:53:00,
2013-03-17 08:08:00,34.4,28.0,29.95,SW,222,2.0,2.0,78,0.00,,,0.00,weatherlink.com 1.10,2013-03-17 12:08:00,
2013-03-17 08:23:00,36.3,28.0,29.96,SSE,163,3.0,5.0,71,0.00,,,0.00,weatherlink.com 1.10,2013-03-17 12:23:00,
2013-03-17 08:38:00,37.1,26.0,29.96,SE,141,3.0,8.0,65,0.00,,,0.00,weatherlink.com 1.10,2013-03-17 12:38:00,
2013-03-17 08:53:00,37.5,26.0,29.97,ESE,110,6.0,11.0,63,0.00,,,0.00,weatherlink.com 1.10,2013-03-17 12:53:00,
2013-03-17 09:08:00,37.7,25.0,29.97,SE,146,5.0,12.0,61,0.00,,,0.00,weatherlink.com 1.10,2013-03-17 13:08:00,
2013-03-17 09:23:00,37.6,25.0,29.98,SE,138,7.0,12.0,60,0.00,,,0.00,weatherlink.com 1.10,2013-03-17 13:23:00,
2013-03-17 09:38:00,37.6,24.0,29.98,SSE,150,4.0,13.0,59,0.00,,,0.00,weatherlink.com 1.10,2013-03-17 13:38:00,
2013-03-17 09:53:00,37.7,24.0,29.98,SE,124,7.0,14.0,57,0.00,,,0.00,weatherlink.com 1.10,2013-03-17 13:53:00,
2013-03-17 10:08:00,36.8,26.0,29.99,SE,141,14.0,20.0,64,0.00,,,0.00,weatherlink.com 1.10,2013-03-17 14:08:00,
2013-03-17 10:23:00,36.5,24.0,30.00,South,172,12.0,17.0,62,0.00,,,0.00,weatherlink.com 1.10,2013-03-17 14:23:00,
2013-03-17 10:38:00,36.0,21.0,30.00,South,169,10.0,19.0,54,0.00,,,0.00,weatherlink.com 1.10,2013-03-17 14:38:00,
2013-03-17 10:53:00,35.9,24.0,30.00,South,188,8.0,18.0,63,0.00,,,0.00,weatherlink.com 1.10,2013-03-17 14:53:00,
2013-03-17 11:08:00,35.2,23.0,30.02,South,180,9.0,20.0,62,0.00,,,0.00,weatherlink.com 1.10,2013-03-17 15:08:00,
2013-03-17 11:23:00,34.9,24.0,30.02,South,170,16.0,21.0,65,0.00,,,0.00,weatherlink.com 1.10,2013-03-17 15:23:00,
2013-03-17 11:38:00,35.6,23.0,30.02,SW,217,12.0,16.0,60,0.00,,,0.00,weatherlink.com 1.10,2013-03-17 15:38:00,
2013-03-17 11:53:00,35.3,23.0,30.03,SE,141,7.0,19.0,62,0.00,,,0.00,weatherlink.com 1.10,2013-03-17 15:53:00,
2013-03-17 12:08:00,34.9,24.0,30.03,SSE,163,13.0,18.0,64,0.00,,,0.00,weatherlink.com 1.10,2013-03-17 16:08:00,
2013-03-17 12:23:00,35.4,23.0,30.02,SE,139,7.0,17.0,60,0.00,,,0.00,weatherlink.com 1.10,2013-03-17 16:23:00,
2013-03-17 12:38:00,35.7,22.0,30.02,SE,145,9.0,14.0,59,0.00,,,0.00,weatherlink.com 1.10,2013-03-17 16:38:00,
2013-03-17 12:53:00,36.1,23.0,30.02,SSE,150,7.0,15.0,59,0.00,,,0.00,weatherlink.com 1.10,2013-03-17 16:53:00,
2013-03-17 13:08:00,36.1,18.0,30.02,SSE,165,9.0,17.0,49,0.00,,,0.00,weatherlink.com 1.10,2013-03-17 17:08:00,
2013-03-17 13:23:00,35.8,19.0,30.02,SW,229,11.0,19.0,51,0.00,,,0.00,weatherlink.com 1.10,2013-03-17 17:23:00,
2013-03-17 13:38:00,35.8,19.0,30.01,South,191,4.0,19.0,51,0.00,,,0.00,weatherlink.com 1.10,2013-03-17 17:38:00,
2013-03-17 13:53:00,36.0,19.0,30.01,SW,236,15.0,19.0,50,0.00,,,0.00,weatherlink.com 1.10,2013-03-17 17:53:00,
2013-03-17 14:08:00,36.0,19.0,30.01,SW,224,14.0,24.0,50,0.00,,,0.00,weatherlink.com 1.10,2013-03-17 18:08:00,
2013-03-17 14:23:00,36.0,19.0,30.01,SW,224,18.0,21.0,50,0.00,,,0.00,weatherlink.com 1.10,2013-03-17 18:23:00,
2013-03-17 14:38:00,35.7,19.0,30.02,SW,229,11.0,25.0,50,0.00,,,0.00,weatherlink.com 1.10,2013-03-17 18:38:00,
2013-03-17 14:53:00,35.3,18.0,30.02,SW,215,13.0,18.0,49,0.00,,,0.00,weatherlink.com 1.10,2013-03-17 18:53:00,
2013-03-17 15:08:00,35.4,17.0,30.03,WSW,237,18.0,21.0,48,0.00,,,0.00,weatherlink.com 1.10,2013-03-17 19:08:00,
2013-03-17 15:23:00,35.6,18.0,30.04,SSE,150,3.0,22.0,48,0.00,,,0.00,weatherlink.com 1.10,2013-03-17 19:23:00,
2013-03-17 15:38:00,35.6,18.0,30.05,SW,221,16.0,18.0,49,0.00,,,0.00,weatherlink.com 1.10,2013-03-17 19:38:00,
2013-03-17 15:54:00,35.3,14.0,30.05,SW,224,5.0,20.0,42,0.00,,,0.00,weatherlink.com 1.10,2013-03-17 19:54:00,
2013-03-17 16:09:00,35.2,17.0,30.06,SW,236,14.0,17.0,48,0.00,,,0.00,weatherlink.com 1.10,2013-03-17 20:09:00,
2013-03-17 16:24:00,35.1,16.0,30.07,WSW,245,10.0,21.0,46,0.00,,,0.00,weatherlink.com 1.10,2013-03-17 20:24:00,
2013-03-17 16:39:00,35.4,16.0,30.07,SW,225,11.0,20.0,45,0.00,,,0.00,weatherlink.com 1.10,2013-03-17 20:39:00,
2013-03-17 16:54:00,35.3,15.0,30.07,SSE,153,9.0,21.0,43,0.00,,,0.00,weatherlink.com 1.10,2013-03-17 20:54:00,
2013-03-17 17:09:00,35.2,15.0,30.07,SW,226,17.0,19.0,44,0.00,,,0.00,weatherlink.com 1.10,2013-03-17 21:09:00,
2013-03-17 17:24:00,35.0,15.0,30.08,SW,225,14.0,18.0,44,0.00,,,0.00,weatherlink.com 1.10,2013-03-17 21:24:00,
2013-03-17 17:39:00,34.8,14.0,30.09,WSW,240,13.0,18.0,43,0.00,,,0.00,weatherlink.com 1.10,2013-03-17 21:39:00,
2013-03-17 17:54:00,34.6,16.0,30.10,SW,231,17.0,18.0,46,0.00,,,0.00,weatherlink.com 1.10,2013-03-17 21:54:00,
2013-03-17 18:09:00,33.9,16.0,30.11,SW,235,10.0,21.0,49,0.00,,,0.00,weatherlink.com 1.10,2013-03-17 22:09:00,
2013-03-17 18:24:00,33.6,13.0,30.12,SW,215,7.0,19.0,43,0.00,,,0.00,weatherlink.com 1.10,2013-03-17 22:24:00,
2013-03-17 18:39:00,33.2,15.0,30.12,SW,229,14.0,17.0,48,0.00,,,0.00,weatherlink.com 1.10,2013-03-17 22:39:00,
2013-03-17 18:54:00,32.8,15.0,30.14,WSW,245,10.0,15.0,48,0.00,,,0.00,weatherlink.com 1.10,2013-03-17 22:54:00,
2013-03-17 19:09:00,32.5,16.0,30.14,SW,225,11.0,13.0,51,0.00,,,0.00,weatherlink.com 1.10,2013-03-17 23:09:00,
2013-03-17 19:24:00,32.5,16.0,30.16,SW,235,9.0,12.0,51,0.00,,,0.00,weatherlink.com 1.10,2013-03-17 23:24:00,
2013-03-17 19:39:00,32.4,17.0,30.17,WSW,245,7.0,14.0,53,0.00,,,0.00,weatherlink.com 1.10,2013-03-17 23:39:00,
2013-03-17 19:54:00,32.3,16.0,30.18,SW,219,11.0,13.0,51,0.00,,,0.00,weatherlink.com 1.10,2013-03-17 23:54:00,
2013-03-17 20:09:00,32.3,16.0,30.18,West,264,8.0,12.0,51,0.00,,,0.00,weatherlink.com 1.10,2013-03-18 00:09:00,
2013-03-17 20:24:00,31.4,15.0,30.19,West,266,7.0,10.0,51,0.00,,,0.00,weatherlink.com 1.10,2013-03-18 00:24:00,
2013-03-17 20:39:00,31.6,16.0,30.20,WSW,248,8.0,10.0,52,0.00,,,0.00,weatherlink.com 1.10,2013-03-18 00:39:00,
2013-03-17 20:54:00,32.1,16.0,30.20,SW,231,10.0,10.0,52,0.00,,,0.00,weatherlink.com 1.10,2013-03-18 00:54:00,
2013-03-17 21:09:00,32.9,17.0,30.21,SSW,200,8.0,11.0,53,0.00,,,0.00,weatherlink.com 1.10,2013-03-18 01:09:00,
2013-03-17 21:24:00,33.0,15.0,30.22,SW,232,10.0,15.0,47,0.00,,,0.00,weatherlink.com 1.10,2013-03-18 01:24:00,
2013-03-17 21:39:00,32.2,16.0,30.23,SW,218,8.0,11.0,51,0.00,,,0.00,weatherlink.com 1.10,2013-03-18 01:39:00,
2013-03-17 21:54:00,32.0,14.0,30.24,WSW,245,12.0,15.0,48,0.00,,,0.00,weatherlink.com 1.10,2013-03-18 01:54:00,
2013-03-17 22:10:00,31.9,15.0,30.25,SW,226,9.0,12.0,49,0.00,,,0.00,weatherlink.com 1.10,2013-03-18 02:10:00,
2013-03-17 22:25:00,31.8,14.0,30.26,WSW,238,11.0,13.0,49,0.00,,,0.00,weatherlink.com 1.10,2013-03-18 02:25:00,
2013-03-17 22:40:00,31.5,14.0,30.26,SW,231,10.0,12.0,49,0.00,,,0.00,weatherlink.com 1.10,2013-03-18 02:40:00,
2013-03-17 22:55:00,31.2,15.0,30.27,West,262,9.0,12.0,52,0.00,,,0.00,weatherlink.com 1.10,2013-03-18 02:55:00,
2013-03-17 23:10:00,30.7,16.0,30.28,SW,232,9.0,10.0,55,0.00,,,0.00,weatherlink.com 1.10,2013-03-18 03:10:00,
2013-03-17 23:25:00,30.6,16.0,30.28,WSW,240,8.0,12.0,54,0.00,,,0.00,weatherlink.com 1.10,2013-03-18 03:25:00,
2013-03-17 23:40:00,30.3,17.0,30.29,SW,225,6.0,14.0,57,0.00,,,0.00,weatherlink.com 1.10,2013-03-18 03:40:00,
2013-03-17 23:55:00,30.0,15.0,30.30,SW,231,11.0,14.0,54,0.00,,,0.00,weatherlink.com 1.10,2013-03-18 03:55:00,